الصفحة الرئيسية
METAR-TAF:

METAR-TAF

مطار :

مطار شينزين باوان الدولي

شينزين, جمهورية الصين الشعبية

دائرة عرض: 22-33N, خط طول: 114-06E, ارتفاع: 18 متر

مراقبة الطقس الحالي

تاريخ ووقت الإصدار 46 دقيقة قبل الساعة 03:00UTC
ريح 6 عقدة من الغرب
درجة الحرارة 31°درجة مئوية
الرطوبة 75%
ضغط 1007 hPa
الرؤية 10 كم أو أكثر
غيوم قليلة على ارتفاع 2000 قدم
غيوم قليلة على ارتفاع 3000 قدم, مزن ركامية عمودية.

METAR: ZGSZ 080300Z 28003MPS 9999 FEW020 FEW030TCU 31/26 Q1007 NOSIG

زمن: 11:46 (03:46 UTC)

توقعات

تاريخ ووقت الإصدار 6ساعات و 42 دقيقة قبل الساعة 21:04UTC
التوقعات صالحة من08 الساعة 00 UTC إلى 08 الساعة 24 UTC
ريح 8 عقدة من الجنوب
الرؤية: 8000 متر
غيوم قليلة على ارتفاع 3000 قدم
أصبح
من 08 الساعة 12 UTC إلى 08 الساعة 13 UTC
ريح 8 عقدة من الشرق/الجنوب الشرقي

TAF: ZGSZ 072104Z 0800/0824 18004MPS 8000 FEW030 TX32/0806Z TN28/0822Z BECMG 0812/0813 11004MPS

أرصاد الطقس والتوقعات من أكثر من 4000 مطار (تقارير الطقس للمطار METAR والتنبؤ بالطقس بالمطارTAF).

المحطات المتاحة هي النقط الصفراء والحمراء على الخريطة.

حرك المؤشر فوق النقطة لمعرفة اسم المحطة.

ثم انقر لمعرفة أرصاد وتوقعات الطقس.

لتغيير الخارطة: اضغط على الأزرار الخضراء مع رمز الصليب الأسود للتكبير. على الزر الأخضر مع شرطة للتصغير، أو على الأسهم الخضراء للخرائط المجاورة.


METAR-TAF: